Time;durP1;ratioP1;P1;durP2;ratioP2;P2;SDS_P1;SDS_P2;PMS_P1;PMS_P2;Temp;Humidity;BMP_temperature;BMP_pressure;BME280_temperature;BME280_humidity;BME280_pressure;Samples;Min_cycle;Max_cycle;Signal;HPM_P1;HPM_P2
2024/02/17 00:02:03;;;;;;;5.18;4.93;;;;;;;;;;6358895;28;20293;-57
2024/02/17 00:05:07;;;;;;;4.82;4.63;;;;;;;;;;6358511;28;20289;-57
2024/02/17 00:08:11;;;;;;;5.50;5.13;;;;;;;;;;6358328;28;20293;-57
2024/02/17 00:11:15;;;;;;;5.43;5.15;;;;;;;;;;6365738;27;20454;-57
2024/02/17 00:14:21;;;;;;;5.68;5.38;;;;;;;;;;6357626;28;20288;-57
2024/02/17 00:17:24;;;;;;;5.78;5.25;;;;;;;;;;6358263;28;20288;-56
2024/02/17 00:20:28;;;;;;;6.15;5.70;;;;;;;;;;6358272;28;20434;-56
2024/02/17 00:23:32;;;;;;;5.50;5.18;;;;;;;;;;6357875;28;20289;-57
2024/02/17 00:26:38;;;;;;;5.93;5.47;;;;;;;;;;6358193;28;20292;-57
2024/02/17 00:29:43;;;;;;;6.43;5.93;;;;;;;;;;6357911;28;20289;-56
2024/02/17 00:32:47;;;;;;;5.10;4.80;;;;;;;;;;6358238;28;20288;-57
2024/02/17 00:35:52;;;;;;;5.47;5.07;;;;;;;;;;6358724;28;20285;-57
2024/02/17 00:38:56;;;;;;;8.60;5.15;;;;;;;;;;6349399;28;20278;-56
2024/02/17 00:41:59;;;;;;;3.17;3.03;;;;;;;;;;6332604;28;20285;-56
2024/02/17 00:45:05;;;;;;;1.40;1.40;;;;;;;;;;6332443;28;20305;-57
2024/02/17 00:48:09;;;;;;;1.20;1.20;;;;;;;;;;6331936;28;20297;-57
2024/02/17 00:51:14;;;;;;;0.70;0.70;;;;;;;;;;6332883;28;20298;-57
2024/02/17 00:54:18;;;;;;;0.70;0.70;;;;;;;;;;6332510;28;20310;-57
2024/02/17 00:57:22;;;;;;;0.60;0.60;;;;;;;;;;6331684;28;20297;-58
2024/02/17 01:00:27;;;;;;;0.70;0.70;;;;;;;;;;6332017;28;20293;-55
2024/02/17 01:03:31;;;;;;;0.50;0.50;;;;;;;;;;6331589;28;20368;-56
2024/02/17 01:06:35;;;;;;;1.10;1.00;;;;;;;;;;6332515;28;20293;-56
2024/02/17 01:09:39;;;;;;;0.60;0.60;;;;;;;;;;6334147;28;20296;-55
2024/02/17 01:12:43;;;;;;;0.50;0.50;;;;;;;;;;6357213;28;20301;-56
2024/02/17 01:15:48;;;;;;;0.70;0.70;;;;;;;;;;6358080;28;20498;-58
2024/02/17 01:18:54;;;;;;;0.60;0.60;;;;;;;;;;6357005;28;20368;-56
2024/02/17 01:21:59;;;;;;;0.67;0.67;;;;;;;;;;6357715;28;20561;-57
2024/02/17 01:25:03;;;;;;;1.00;1.00;;;;;;;;;;6357235;28;20289;-56
2024/02/17 01:28:07;;;;;;;0.50;0.50;;;;;;;;;;6356944;28;20300;-56
2024/02/17 01:31:13;;;;;;;0.60;0.60;;;;;;;;;;6357317;28;20287;-56
2024/02/17 01:34:17;;;;;;;0.53;0.53;;;;;;;;;;6356695;28;20296;-57
2024/02/17 01:37:20;;;;;;;0.50;0.50;;;;;;;;;;6356225;28;20300;-58
2024/02/17 01:40:25;;;;;;;1.67;1.10;;;;;;;;;;6357110;28;20406;-57
2024/02/17 01:43:29;;;;;;;2.97;1.70;;;;;;;;;;6356000;28;20326;-57
2024/02/17 01:46:34;;;;;;;7.00;2.03;;;;;;;;;;6357204;28;20300;-56
2024/02/17 01:49:38;;;;;;;1.90;1.70;;;;;;;;;;6356444;28;20299;-56
2024/02/17 01:52:42;;;;;;;1.50;1.40;;;;;;;;;;6356103;28;20465;-54
2024/02/17 01:55:46;;;;;;;8.90;2.73;;;;;;;;;;6356740;28;20605;-57
2024/02/17 01:58:50;;;;;;;4.00;1.80;;;;;;;;;;6356759;28;20295;-57
2024/02/17 02:01:56;;;;;;;2.23;1.80;;;;;;;;;;6356332;28;20287;-57
2024/02/17 02:05:00;;;;;;;3.20;1.77;;;;;;;;;;6355765;28;20370;-56
2024/02/17 02:08:05;;;;;;;3.80;2.27;;;;;;;;;;6355772;28;20377;-56
2024/02/17 02:11:09;;;;;;;10.87;3.07;;;;;;;;;;6356721;28;20288;-56
2024/02/17 02:14:13;;;;;;;5.60;2.27;;;;;;;;;;6360061;28;20527;-57
2024/02/17 02:17:19;;;;;;;1.87;1.70;;;;;;;;;;6360523;28;20320;-58
2024/02/17 02:20:24;;;;;;;3.17;2.40;;;;;;;;;;6360447;28;20303;-56
2024/02/17 02:23:28;;;;;;;8.33;3.00;;;;;;;;;;6359782;28;20311;-57
2024/02/17 02:26:34;;;;;;;3.93;2.30;;;;;;;;;;6361540;28;20614;-57
2024/02/17 02:29:38;;;;;;;6.97;3.00;;;;;;;;;;6360932;28;20323;-57
2024/02/17 02:32:41;;;;;;;6.97;3.13;;;;;;;;;;6360166;28;20304;-56
2024/02/17 02:35:45;;;;;;;2.07;1.67;;;;;;;;;;6361313;28;20295;-57
2024/02/17 02:38:50;;;;;;;0.80;0.80;;;;;;;;;;6360631;28;20597;-58
2024/02/17 02:41:55;;;;;;;2.73;1.80;;;;;;;;;;6360936;28;20290;-57
2024/02/17 02:44:59;;;;;;;3.07;2.10;;;;;;;;;;6359844;28;20295;-57
2024/02/17 02:48:02;;;;;;;0.87;0.87;;;;;;;;;;6360032;28;20287;-57
2024/02/17 02:51:07;;;;;;;0.70;0.70;;;;;;;;;;6360896;28;20288;-56
2024/02/17 02:54:11;;;;;;;0.80;0.80;;;;;;;;;;6360353;28;20299;-57
2024/02/17 02:57:17;;;;;;;2.03;1.03;;;;;;;;;;6381189;27;20552;-56
2024/02/17 03:00:21;;;;;;;2.13;1.77;;;;;;;;;;6385339;27;20304;-55
2024/02/17 03:03:25;;;;;;;0.90;0.90;;;;;;;;;;6385156;27;20303;-56
2024/02/17 03:06:29;;;;;;;0.87;0.87;;;;;;;;;;6385427;27;20485;-54
2024/02/17 03:09:33;;;;;;;1.60;1.00;;;;;;;;;;6376242;27;20503;-57
2024/02/17 03:12:39;;;;;;;1.53;0.90;;;;;;;;;;6359774;28;20324;-57
2024/02/17 03:15:42;;;;;;;0.70;0.70;;;;;;;;;;6360516;28;20299;-57
2024/02/17 03:18:46;;;;;;;0.80;0.80;;;;;;;;;;6359494;28;20295;-57
2024/02/17 03:21:50;;;;;;;0.80;0.80;;;;;;;;;;6359721;28;20292;-57
2024/02/17 03:24:54;;;;;;;0.70;0.70;;;;;;;;;;6358839;28;20291;-57
2024/02/17 03:28:00;;;;;;;0.70;0.70;;;;;;;;;;6359411;28;20382;-55
2024/02/17 03:31:04;;;;;;;3.27;1.33;;;;;;;;;;6360090;28;20289;-57
2024/02/17 03:34:08;;;;;;;0.80;0.80;;;;;;;;;;6359042;28;20282;-56
2024/02/17 03:37:12;;;;;;;0.60;0.60;;;;;;;;;;6357463;28;20313;-55
2024/02/17 03:40:16;;;;;;;0.60;0.60;;;;;;;;;;6384144;27;20293;-57
2024/02/17 03:43:21;;;;;;;1.17;1.17;;;;;;;;;;6384520;27;20296;-58
2024/02/17 03:46:25;;;;;;;0.70;0.70;;;;;;;;;;6384327;27;20288;-57
2024/02/17 03:49:29;;;;;;;1.00;1.00;;;;;;;;;;6383812;27;20316;-57
2024/02/17 03:52:33;;;;;;;0.63;0.63;;;;;;;;;;6384378;27;20306;-56
2024/02/17 03:55:37;;;;;;;1.70;0.70;;;;;;;;;;6384329;27;20331;-57
2024/02/17 03:58:42;;;;;;;0.60;0.60;;;;;;;;;;6383534;27;20296;-57
2024/02/17 04:01:46;;;;;;;0.80;0.80;;;;;;;;;;6370219;27;20403;-56
2024/02/17 04:04:50;;;;;;;0.80;0.80;;;;;;;;;;6360058;27;20293;-56
2024/02/17 04:07:54;;;;;;;0.70;0.70;;;;;;;;;;6356181;28;20286;-57
2024/02/17 04:10:58;;;;;;;0.70;0.70;;;;;;;;;;6358963;28;20334;-55
2024/02/17 04:14:04;;;;;;;0.70;0.70;;;;;;;;;;6358321;28;20311;-57
2024/02/17 04:17:08;;;;;;;0.70;0.70;;;;;;;;;;6358859;28;20470;-57
2024/02/17 04:20:12;;;;;;;0.70;0.70;;;;;;;;;;6357666;28;20293;-56
2024/02/17 04:23:16;;;;;;;0.60;0.60;;;;;;;;;;6357722;28;20291;-55
2024/02/17 04:26:20;;;;;;;0.70;0.70;;;;;;;;;;6358537;28;20293;-56
2024/02/17 04:29:25;;;;;;;0.70;0.70;;;;;;;;;;6383126;27;20288;-57
2024/02/17 04:32:29;;;;;;;0.77;0.77;;;;;;;;;;6383540;27;20290;-56
2024/02/17 04:35:33;;;;;;;0.70;0.70;;;;;;;;;;6379889;27;20277;-57
2024/02/17 04:38:38;;;;;;;0.70;0.70;;;;;;;;;;6357140;28;20292;-57
2024/02/17 04:41:42;;;;;;;0.70;0.70;;;;;;;;;;6358072;28;20295;-57
2024/02/17 04:44:47;;;;;;;0.67;0.67;;;;;;;;;;6357810;28;20283;-57
2024/02/17 04:47:51;;;;;;;0.80;0.80;;;;;;;;;;6357563;28;20294;-55
2024/02/17 04:50:55;;;;;;;0.70;0.70;;;;;;;;;;6357958;28;20286;-56
2024/02/17 04:53:59;;;;;;;0.63;0.63;;;;;;;;;;6357359;28;20284;-57
2024/02/17 04:57:03;;;;;;;0.80;0.80;;;;;;;;;;6357811;28;20443;-57
2024/02/17 05:00:10;;;;;;;0.80;0.80;;;;;;;;;;6356824;28;20293;-56
2024/02/17 05:03:14;;;;;;;0.80;0.80;;;;;;;;;;6357263;28;20306;-56
2024/02/17 05:06:20;;;;;;;0.80;0.80;;;;;;;;;;6357030;28;20301;-56
2024/02/17 05:09:25;;;;;;;0.80;0.80;;;;;;;;;;6356818;28;20299;-56
2024/02/17 05:12:29;;;;;;;0.80;0.80;;;;;;;;;;6357551;28;20288;-57
2024/02/17 05:15:34;;;;;;;0.67;0.67;;;;;;;;;;6357289;28;20298;-57
2024/02/17 05:18:39;;;;;;;0.90;0.90;;;;;;;;;;6357241;28;20585;-56
2024/02/17 05:21:44;;;;;;;0.70;0.70;;;;;;;;;;6357513;28;20290;-55
2024/02/17 05:24:48;;;;;;;0.90;0.90;;;;;;;;;;6356626;28;20357;-57
2024/02/17 05:27:52;;;;;;;0.90;0.90;;;;;;;;;;6356764;28;20473;-56
2024/02/17 05:30:57;;;;;;;0.80;0.80;;;;;;;;;;6355497;28;20459;-56
2024/02/17 05:34:02;;;;;;;0.90;0.90;;;;;;;;;;6356561;28;20289;-55
2024/02/17 05:37:07;;;;;;;0.70;0.70;;;;;;;;;;6356825;28;20291;-57
2024/02/17 05:40:12;;;;;;;0.70;0.70;;;;;;;;;;6356889;28;20303;-57
2024/02/17 05:43:17;;;;;;;0.90;0.90;;;;;;;;;;6356815;28;20292;-57
2024/02/17 05:46:23;;;;;;;0.80;0.80;;;;;;;;;;6357001;28;20307;-58
2024/02/17 05:49:27;;;;;;;0.80;0.80;;;;;;;;;;6361194;28;20298;-56
2024/02/17 05:52:32;;;;;;;0.70;0.70;;;;;;;;;;6361878;28;20517;-56
2024/02/17 05:55:36;;;;;;;0.80;0.80;;;;;;;;;;6360893;28;20318;-57
2024/02/17 05:58:40;;;;;;;0.90;0.90;;;;;;;;;;6361159;28;20300;-57
2024/02/17 06:01:46;;;;;;;0.80;0.80;;;;;;;;;;6361993;28;20290;-57
2024/02/17 06:04:50;;;;;;;0.70;0.70;;;;;;;;;;6361638;28;20560;-57
2024/02/17 06:07:54;;;;;;;0.70;0.70;;;;;;;;;;6361270;28;20253;-55
2024/02/17 06:10:58;;;;;;;0.70;0.70;;;;;;;;;;6361998;28;20287;-55
2024/02/17 06:14:02;;;;;;;0.80;0.80;;;;;;;;;;6361170;28;20285;-57
2024/02/17 06:17:07;;;;;;;0.67;0.67;;;;;;;;;;6361394;28;20280;-57
2024/02/17 06:23:33;;;;;;;0.80;0.80;;;;;;;;;;6360872;28;20300;-57
2024/02/17 06:26:37;;;;;;;0.80;0.80;;;;;;;;;;6361325;28;20292;-57
2024/02/17 06:29:42;;;;;;;0.60;0.60;;;;;;;;;;6360634;28;20300;-55
2024/02/17 06:32:48;;;;;;;0.70;0.70;;;;;;;;;;6360259;28;20311;-56
2024/02/17 06:35:52;;;;;;;0.60;0.60;;;;;;;;;;6361545;28;20293;-57
2024/02/17 06:38:56;;;;;;;0.70;0.70;;;;;;;;;;6360784;28;20290;-58
2024/02/17 06:41:59;;;;;;;0.70;0.70;;;;;;;;;;6360915;28;20284;-56
2024/02/17 06:45:04;;;;;;;0.70;0.70;;;;;;;;;;6360469;28;20584;-56
2024/02/17 06:48:11;;;;;;;0.80;0.80;;;;;;;;;;6359919;28;20289;-57
2024/02/17 06:51:15;;;;;;;0.70;0.70;;;;;;;;;;6360683;28;20404;-57
2024/02/17 06:54:19;;;;;;;0.80;0.80;;;;;;;;;;6359390;28;20526;-56
2024/02/17 06:57:23;;;;;;;0.60;0.60;;;;;;;;;;6360776;28;20464;-58
2024/02/17 07:00:27;;;;;;;0.70;0.70;;;;;;;;;;6359358;28;20301;-57
2024/02/17 07:03:34;;;;;;;0.70;0.70;;;;;;;;;;6360654;28;20389;-56
2024/02/17 07:06:38;;;;;;;0.90;0.90;;;;;;;;;;6360458;28;20293;-57
2024/02/17 07:09:43;;;;;;;0.70;0.70;;;;;;;;;;6366590;27;20292;-56
2024/02/17 07:12:46;;;;;;;1.40;0.80;;;;;;;;;;6359964;28;20288;-57
2024/02/17 07:15:50;;;;;;;0.80;0.80;;;;;;;;;;6360095;28;20289;-56
2024/02/17 07:18:59;;;;;;;1.43;0.80;;;;;;;;;;6359759;28;20288;-56
2024/02/17 07:22:08;;;;;;;0.90;0.90;;;;;;;;;;6360046;28;20282;-54
2024/02/17 07:25:12;;;;;;;0.83;0.83;;;;;;;;;;6359724;28;20281;-54
2024/02/17 07:28:16;;;;;;;0.70;0.70;;;;;;;;;;6359487;28;20292;-56
2024/02/17 07:31:20;;;;;;;0.70;0.70;;;;;;;;;;6359833;28;20293;-55
2024/02/17 07:34:26;;;;;;;0.70;0.70;;;;;;;;;;6359161;28;20598;-55
2024/02/17 07:37:30;;;;;;;0.80;0.80;;;;;;;;;;6357386;28;20289;-58
2024/02/17 07:40:34;;;;;;;0.60;0.60;;;;;;;;;;6359090;28;20302;-57
2024/02/17 07:43:38;;;;;;;0.70;0.70;;;;;;;;;;6358582;28;20314;-56
2024/02/17 07:46:42;;;;;;;0.70;0.70;;;;;;;;;;6359280;28;20306;-56
2024/02/17 07:49:47;;;;;;;0.70;0.70;;;;;;;;;;6358704;28;20513;-54
2024/02/17 07:52:52;;;;;;;0.77;0.77;;;;;;;;;;6358557;28;20293;-57
2024/02/17 07:55:56;;;;;;;0.80;0.80;;;;;;;;;;6359296;28;20298;-55
2024/02/17 07:59:00;;;;;;;0.70;0.70;;;;;;;;;;6358424;28;20281;-55
2024/02/17 08:02:04;;;;;;;0.70;0.70;;;;;;;;;;6358962;28;20329;-54
2024/02/17 08:05:10;;;;;;;0.70;0.70;;;;;;;;;;6358239;28;20290;-56
2024/02/17 08:08:14;;;;;;;0.70;0.70;;;;;;;;;;6358001;28;20439;-56
2024/02/17 08:11:18;;;;;;;0.80;0.80;;;;;;;;;;6358156;28;20304;-57
2024/02/17 08:14:22;;;;;;;0.70;0.70;;;;;;;;;;6357755;28;20296;-56
2024/02/17 08:17:25;;;;;;;0.87;0.87;;;;;;;;;;6358917;28;20293;-55
2024/02/17 08:20:31;;;;;;;0.73;0.73;;;;;;;;;;6357812;28;20301;-56
2024/02/17 08:23:35;;;;;;;0.90;0.90;;;;;;;;;;6357955;28;20384;-56
2024/02/17 08:26:38;;;;;;;0.70;0.70;;;;;;;;;;6358517;28;20297;-55
2024/02/17 08:29:42;;;;;;;0.90;0.90;;;;;;;;;;6357776;28;20581;-59
2024/02/17 08:32:46;;;;;;;0.80;0.80;;;;;;;;;;6357998;28;20365;-56
2024/02/17 08:35:52;;;;;;;0.70;0.70;;;;;;;;;;6358353;28;20285;-55
2024/02/17 08:38:56;;;;;;;0.70;0.70;;;;;;;;;;6357929;28;20443;-56
2024/02/17 08:42:00;;;;;;;0.80;0.80;;;;;;;;;;6358143;28;20288;-57
2024/02/17 08:45:04;;;;;;;0.80;0.80;;;;;;;;;;6357784;28;20288;-55
2024/02/17 08:48:08;;;;;;;0.80;0.80;;;;;;;;;;6357349;28;20287;-57
2024/02/17 08:51:14;;;;;;;0.83;0.83;;;;;;;;;;6357851;28;20292;-57
2024/02/17 08:54:20;;;;;;;0.87;0.87;;;;;;;;;;6357195;28;20302;-57
2024/02/17 08:57:23;;;;;;;0.90;0.90;;;;;;;;;;6357622;28;20295;-57
2024/02/17 09:00:27;;;;;;;1.10;1.10;;;;;;;;;;6357565;28;20298;-57
2024/02/17 09:03:32;;;;;;;1.40;1.00;;;;;;;;;;6357680;28;20456;-56
2024/02/17 09:06:37;;;;;;;0.93;0.93;;;;;;;;;;6357889;28;20376;-57
2024/02/17 09:09:41;;;;;;;0.90;0.90;;;;;;;;;;6356798;28;20286;-56
2024/02/17 09:12:45;;;;;;;1.00;1.00;;;;;;;;;;6356583;28;20312;-58
2024/02/17 09:15:49;;;;;;;1.17;1.17;;;;;;;;;;6357731;28;20292;-57
2024/02/17 09:18:53;;;;;;;0.73;0.73;;;;;;;;;;6356342;28;20302;-57
2024/02/17 09:21:58;;;;;;;1.20;1.20;;;;;;;;;;6356968;28;20284;-56
2024/02/17 09:25:02;;;;;;;1.00;1.00;;;;;;;;;;6356614;28;20284;-57
2024/02/17 09:28:07;;;;;;;1.90;1.00;;;;;;;;;;6356481;28;20293;-58
2024/02/17 09:31:11;;;;;;;1.00;1.00;;;;;;;;;;6357227;28;20311;-58
2024/02/17 09:34:15;;;;;;;1.10;1.10;;;;;;;;;;6338691;28;20290;-57
2024/02/17 09:37:21;;;;;;;1.00;1.00;;;;;;;;;;6357476;28;20314;-56
2024/02/17 09:40:24;;;;;;;0.97;0.97;;;;;;;;;;6356513;28;20502;-57
2024/02/17 09:43:28;;;;;;;1.00;1.00;;;;;;;;;;6355973;28;20558;-61
2024/02/17 09:46:32;;;;;;;0.80;0.80;;;;;;;;;;6357636;28;20362;-58
2024/02/17 09:49:37;;;;;;;0.90;0.90;;;;;;;;;;6356503;28;20296;-58
2024/02/17 09:52:42;;;;;;;0.90;0.90;;;;;;;;;;6356420;28;20309;-58
2024/02/17 09:55:47;;;;;;;1.00;1.00;;;;;;;;;;6357384;28;20321;-57
2024/02/17 09:58:51;;;;;;;1.00;1.00;;;;;;;;;;6356683;28;20548;-57
2024/02/17 10:01:55;;;;;;;0.90;0.90;;;;;;;;;;6357124;28;20298;-56
2024/02/17 10:04:59;;;;;;;1.00;1.00;;;;;;;;;;6356836;28;20298;-57
2024/02/17 10:08:07;;;;;;;2.47;1.10;;;;;;;;;;6356909;28;20277;-56
2024/02/17 10:11:11;;;;;;;0.90;0.90;;;;;;;;;;6363870;28;20306;-54
2024/02/17 10:14:16;;;;;;;0.90;0.90;;;;;;;;;;6356699;28;20299;-57
2024/02/17 10:17:22;;;;;;;1.90;0.80;;;;;;;;;;6357283;28;20310;-58
2024/02/17 10:20:26;;;;;;;1.03;0.70;;;;;;;;;;6356337;28;20296;-57
2024/02/17 10:23:31;;;;;;;0.93;0.93;;;;;;;;;;6356561;28;20291;-58
2024/02/17 10:26:35;;;;;;;0.90;0.90;;;;;;;;;;6357130;28;20646;-58
2024/02/17 10:29:39;;;;;;;0.70;0.70;;;;;;;;;;6356293;28;20295;-57
2024/02/17 10:32:43;;;;;;;1.17;1.17;;;;;;;;;;6356126;28;20499;-58
2024/02/17 10:35:48;;;;;;;1.07;1.07;;;;;;;;;;6341738;28;20306;-57
2024/02/17 10:38:54;;;;;;;0.80;0.80;;;;;;;;;;6360678;28;20291;-58
2024/02/17 10:41:58;;;;;;;0.93;0.93;;;;;;;;;;6361040;28;20295;-58
2024/02/17 10:45:03;;;;;;;0.80;0.80;;;;;;;;;;6360561;28;20292;-56
2024/02/17 10:48:08;;;;;;;0.80;0.80;;;;;;;;;;6360634;28;20294;-56
2024/02/17 10:51:13;;;;;;;0.97;0.97;;;;;;;;;;6360862;28;20530;-58
2024/02/17 10:54:27;;;;;;;0.80;0.80;;;;;;;;;;6360039;28;20302;-57
2024/02/17 10:57:41;;;;;;;0.90;0.90;;;;;;;;;;6360570;28;20308;-58
2024/02/17 11:00:47;;;;;;;0.70;0.70;;;;;;;;;;6360355;28;20309;-58
2024/02/17 11:03:51;;;;;;;0.80;0.80;;;;;;;;;;6360244;28;20287;-57
2024/02/17 11:06:55;;;;;;;0.90;0.90;;;;;;;;;;6360936;28;20586;-57
2024/02/17 11:10:04;;;;;;;0.80;0.80;;;;;;;;;;6359939;28;20282;-58
2024/02/17 11:13:22;;;;;;;1.00;1.00;;;;;;;;;;6359932;28;20446;-58
2024/02/17 11:16:26;;;;;;;0.80;0.80;;;;;;;;;;6360444;28;20295;-58
2024/02/17 11:19:30;;;;;;;0.80;0.80;;;;;;;;;;6359101;28;20290;-57
2024/02/17 11:22:47;;;;;;;0.80;0.80;;;;;;;;;;6359472;28;20296;-57
2024/02/17 11:25:52;;;;;;;0.83;0.83;;;;;;;;;;6359980;28;20284;-56
2024/02/17 11:28:56;;;;;;;1.00;0.90;;;;;;;;;;6359227;28;20244;-57
2024/02/17 11:32:01;;;;;;;0.70;0.70;;;;;;;;;;6360323;28;20294;-57
2024/02/17 11:35:07;;;;;;;0.80;0.80;;;;;;;;;;6359456;28;20292;-56
2024/02/17 11:38:13;;;;;;;0.80;0.80;;;;;;;;;;6359445;28;20307;-54
2024/02/17 11:41:19;;;;;;;0.60;0.60;;;;;;;;;;6359918;28;20290;-57
2024/02/17 11:44:23;;;;;;;1.07;1.07;;;;;;;;;;6359187;28;20339;-55
2024/02/17 11:47:29;;;;;;;0.70;0.70;;;;;;;;;;6359085;28;20294;-56
2024/02/17 11:50:34;;;;;;;0.70;0.70;;;;;;;;;;6358937;28;20295;-56
2024/02/17 11:53:38;;;;;;;0.80;0.80;;;;;;;;;;6358840;28;20303;-56
2024/02/17 11:56:43;;;;;;;0.73;0.73;;;;;;;;;;6359277;28;20295;-57
2024/02/17 11:59:47;;;;;;;0.93;0.93;;;;;;;;;;6358686;28;20616;-56
2024/02/17 12:02:55;;;;;;;0.70;0.70;;;;;;;;;;6330279;28;20292;-56
2024/02/17 12:06:01;;;;;;;1.00;1.00;;;;;;;;;;6359080;28;20291;-57
2024/02/17 12:09:06;;;;;;;0.87;0.87;;;;;;;;;;6363491;27;20298;-56
2024/02/17 12:12:12;;;;;;;0.93;0.93;;;;;;;;;;6360327;27;20323;-56
2024/02/17 12:15:16;;;;;;;0.93;0.93;;;;;;;;;;6358371;28;20299;-56
2024/02/17 12:18:21;;;;;;;0.80;0.80;;;;;;;;;;6358561;28;20462;-56
2024/02/17 12:21:26;;;;;;;0.80;0.80;;;;;;;;;;6358888;28;20298;-54
2024/02/17 12:24:30;;;;;;;0.83;0.83;;;;;;;;;;6358156;28;20484;-58
2024/02/17 12:27:36;;;;;;;0.80;0.80;;;;;;;;;;6358443;28;20299;-55
2024/02/17 12:30:47;;;;;;;1.00;1.00;;;;;;;;;;6358276;28;20411;-57
2024/02/17 12:33:52;;;;;;;0.70;0.70;;;;;;;;;;6357995;28;20299;-58
2024/02/17 12:36:57;;;;;;;0.90;0.90;;;;;;;;;;6359006;28;20338;-57
2024/02/17 12:40:04;;;;;;;0.70;0.70;;;;;;;;;;6344405;28;20292;-57
2024/02/17 12:43:09;;;;;;;1.20;0.80;;;;;;;;;;6332387;28;20287;-57
2024/02/17 12:46:19;;;;;;;0.93;0.80;;;;;;;;;;6333081;28;20300;-55
2024/02/17 12:49:24;;;;;;;0.93;0.80;;;;;;;;;;6332422;28;20315;-56
2024/02/17 12:52:29;;;;;;;0.77;0.77;;;;;;;;;;6333293;28;20305;-57
2024/02/17 12:55:33;;;;;;;0.90;0.90;;;;;;;;;;6332546;28;20309;-57
2024/02/17 12:58:59;;;;;;;0.80;0.80;;;;;;;;;;6331660;28;20472;-57
2024/02/17 13:02:02;;;;;;;2.03;0.80;;;;;;;;;;6332438;28;20302;-59
2024/02/17 13:05:08;;;;;;;2.83;0.90;;;;;;;;;;6332372;28;20288;-56
2024/02/17 13:08:12;;;;;;;0.80;0.80;;;;;;;;;;6332361;28;20257;-57
2024/02/17 13:11:16;;;;;;;1.30;0.97;;;;;;;;;;6349200;28;20642;-57
2024/02/17 13:14:22;;;;;;;1.00;1.00;;;;;;;;;;6357024;28;20593;-57
2024/02/17 13:17:26;;;;;;;0.70;0.70;;;;;;;;;;6357638;28;20287;-57
2024/02/17 13:20:30;;;;;;;2.00;0.70;;;;;;;;;;6357049;28;20441;-57
2024/02/17 13:23:33;;;;;;;0.60;0.60;;;;;;;;;;6338222;28;20294;-58
2024/02/17 13:26:37;;;;;;;0.70;0.70;;;;;;;;;;6358032;28;20295;-57
2024/02/17 13:29:43;;;;;;;0.93;0.70;;;;;;;;;;6357381;28;20470;-57
2024/02/17 13:32:47;;;;;;;0.60;0.60;;;;;;;;;;6356820;28;20295;-57
2024/02/17 13:35:51;;;;;;;0.70;0.70;;;;;;;;;;6357013;28;20292;-55
2024/02/17 13:38:55;;;;;;;2.10;0.80;;;;;;;;;;6357154;28;20287;-58
2024/02/17 13:41:59;;;;;;;0.70;0.70;;;;;;;;;;6357532;28;20287;-57
2024/02/17 13:45:05;;;;;;;0.67;0.67;;;;;;;;;;6356861;28;20251;-58
2024/02/17 13:48:10;;;;;;;0.70;0.70;;;;;;;;;;6357266;28;20291;-57
2024/02/17 13:51:15;;;;;;;0.60;0.60;;;;;;;;;;6357552;28;20288;-57
2024/02/17 13:54:19;;;;;;;1.20;1.20;;;;;;;;;;6355837;28;20303;-57
2024/02/17 13:57:23;;;;;;;0.60;0.60;;;;;;;;;;6378077;28;20293;-57
2024/02/17 14:00:28;;;;;;;0.60;0.60;;;;;;;;;;6382090;28;20300;-57
2024/02/17 14:03:32;;;;;;;0.70;0.70;;;;;;;;;;6382073;28;20290;-57
2024/02/17 14:06:36;;;;;;;1.00;1.00;;;;;;;;;;6382785;28;20365;-56
2024/02/17 14:09:41;;;;;;;0.60;0.60;;;;;;;;;;6374785;27;20300;-55
2024/02/17 14:12:45;;;;;;;0.80;0.80;;;;;;;;;;6361378;28;20306;-58
2024/02/17 14:15:50;;;;;;;0.90;0.90;;;;;;;;;;6361943;28;20457;-56
2024/02/17 14:18:55;;;;;;;3.30;0.60;;;;;;;;;;6361126;28;20489;-57
2024/02/17 14:21:59;;;;;;;1.90;0.80;;;;;;;;;;6387231;27;20438;-56
2024/02/17 14:25:03;;;;;;;2.73;0.90;;;;;;;;;;6387170;27;20604;-57
2024/02/17 14:28:07;;;;;;;0.60;0.60;;;;;;;;;;6387074;27;20315;-57
2024/02/17 14:31:15;;;;;;;0.60;0.60;;;;;;;;;;6387116;27;20286;-57
2024/02/17 14:34:19;;;;;;;0.57;0.57;;;;;;;;;;6386667;27;20299;-56
2024/02/17 14:37:23;;;;;;;0.60;0.60;;;;;;;;;;6387403;27;20440;-58
2024/02/17 14:40:28;;;;;;;2.00;0.80;;;;;;;;;;6387081;27;20295;-56
2024/02/17 14:43:34;;;;;;;0.70;0.70;;;;;;;;;;6354549;27;20295;-57
2024/02/17 14:46:40;;;;;;;1.13;1.00;;;;;;;;;;6386839;27;20290;-59
2024/02/17 14:49:44;;;;;;;0.60;0.60;;;;;;;;;;6386353;27;20296;-57
2024/02/17 14:52:48;;;;;;;2.63;0.60;;;;;;;;;;6386221;27;20295;-55
2024/02/17 14:55:52;;;;;;;2.20;0.90;;;;;;;;;;6386537;27;20314;-58
2024/02/17 14:58:56;;;;;;;1.27;0.80;;;;;;;;;;6375192;27;20289;-57
2024/02/17 15:02:01;;;;;;;0.60;0.60;;;;;;;;;;6385977;27;20286;-57
2024/02/17 15:05:08;;;;;;;1.90;0.70;;;;;;;;;;6386281;27;20298;-57
2024/02/17 15:08:12;;;;;;;1.80;0.70;;;;;;;;;;6385842;27;20297;-57
2024/02/17 15:11:17;;;;;;;3.00;0.77;;;;;;;;;;6362757;27;20290;-59
2024/02/17 15:14:21;;;;;;;1.70;1.10;;;;;;;;;;6385255;27;20295;-58
2024/02/17 15:17:29;;;;;;;1.97;0.70;;;;;;;;;;6385989;27;20305;-55
2024/02/17 15:20:33;;;;;;;2.63;0.63;;;;;;;;;;6384695;27;20299;-57
2024/02/17 15:23:37;;;;;;;0.70;0.70;;;;;;;;;;6385491;27;20591;-57
2024/02/17 15:26:41;;;;;;;0.70;0.70;;;;;;;;;;6385945;27;20301;-59
2024/02/17 15:29:46;;;;;;;1.73;1.00;;;;;;;;;;6385610;27;20285;-57
2024/02/17 15:32:51;;;;;;;0.80;0.80;;;;;;;;;;6385632;27;20485;-58
2024/02/17 15:35:55;;;;;;;4.13;0.80;;;;;;;;;;6386236;27;20308;-58
2024/02/17 15:38:59;;;;;;;0.70;0.70;;;;;;;;;;6384898;27;20305;-57
2024/02/17 15:42:03;;;;;;;1.33;0.90;;;;;;;;;;6385722;27;20286;-57
2024/02/17 15:45:07;;;;;;;0.90;0.90;;;;;;;;;;6384843;27;20313;-58
2024/02/17 15:48:13;;;;;;;3.43;0.80;;;;;;;;;;6385116;27;20294;-57
2024/02/17 15:51:17;;;;;;;0.80;0.80;;;;;;;;;;6385608;27;20595;-57
2024/02/17 15:54:22;;;;;;;2.10;0.73;;;;;;;;;;6385045;27;20297;-57
2024/02/17 15:57:26;;;;;;;1.80;0.83;;;;;;;;;;6384726;27;20288;-57
2024/02/17 16:00:29;;;;;;;0.77;0.77;;;;;;;;;;6384872;27;20293;-58
2024/02/17 16:03:35;;;;;;;0.90;0.90;;;;;;;;;;6384535;27;20471;-58
2024/02/17 16:06:40;;;;;;;0.70;0.70;;;;;;;;;;6384173;27;20477;-57
2024/02/17 16:09:46;;;;;;;3.20;0.93;;;;;;;;;;6377359;27;20288;-55
2024/02/17 16:12:50;;;;;;;0.83;0.80;;;;;;;;;;6384584;27;20296;-56
2024/02/17 16:15:55;;;;;;;1.80;0.70;;;;;;;;;;6384946;27;20300;-56
2024/02/17 16:19:00;;;;;;;0.80;0.80;;;;;;;;;;6384076;27;20297;-57
2024/02/17 16:22:04;;;;;;;3.13;1.13;;;;;;;;;;6384462;27;20602;-57
2024/02/17 16:25:10;;;;;;;3.67;1.50;;;;;;;;;;6384086;27;20290;-55
2024/02/17 16:28:14;;;;;;;4.43;1.10;;;;;;;;;;6384032;27;20293;-55
2024/02/17 16:31:17;;;;;;;1.10;1.10;;;;;;;;;;6384584;27;20288;-57
2024/02/17 16:34:23;;;;;;;1.37;1.30;;;;;;;;;;6383738;27;20320;-56
2024/02/17 16:37:27;;;;;;;1.10;0.90;;;;;;;;;;6384550;27;20291;-56
2024/02/17 16:40:31;;;;;;;1.57;1.27;;;;;;;;;;6383427;27;20303;-56
2024/02/17 16:43:35;;;;;;;0.90;0.90;;;;;;;;;;6383407;27;20599;-59
2024/02/17 16:46:39;;;;;;;1.00;1.00;;;;;;;;;;6384276;27;20307;-56
2024/02/17 16:49:45;;;;;;;1.67;1.60;;;;;;;;;;6383932;27;20295;-57
2024/02/17 16:52:49;;;;;;;1.10;1.10;;;;;;;;;;6383504;27;20311;-56
2024/02/17 16:55:52;;;;;;;1.60;1.17;;;;;;;;;;6383718;27;20292;-56
2024/02/17 16:58:56;;;;;;;1.20;1.20;;;;;;;;;;6383132;27;20280;-57
2024/02/17 17:02:00;;;;;;;3.30;1.33;;;;;;;;;;6383655;27;20291;-57
2024/02/17 17:05:06;;;;;;;1.30;1.30;;;;;;;;;;6383113;27;20295;-57
2024/02/17 17:08:10;;;;;;;2.00;1.40;;;;;;;;;;6382890;27;20299;-56
2024/02/17 17:11:17;;;;;;;1.10;1.10;;;;;;;;;;6376186;27;20295;-57
2024/02/17 17:14:20;;;;;;;1.57;1.57;;;;;;;;;;6382677;27;20304;-57
2024/02/17 17:17:24;;;;;;;2.23;1.40;;;;;;;;;;6383348;27;20300;-57
2024/02/17 17:20:29;;;;;;;1.60;1.60;;;;;;;;;;6383079;27;20578;-57
2024/02/17 17:23:33;;;;;;;1.70;1.70;;;;;;;;;;6381514;27;20307;-55
2024/02/17 17:26:37;;;;;;;1.53;1.50;;;;;;;;;;6383797;28;20295;-58
2024/02/17 17:29:53;;;;;;;2.20;2.10;;;;;;;;;;6382557;27;20470;-57
2024/02/17 17:32:57;;;;;;;6.83;1.80;;;;;;;;;;6382886;28;20302;-56
2024/02/17 17:36:03;;;;;;;1.70;1.60;;;;;;;;;;6383404;28;20290;-56
2024/02/17 17:39:07;;;;;;;1.60;1.50;;;;;;;;;;6382572;28;20292;-56
2024/02/17 17:42:11;;;;;;;1.77;1.23;;;;;;;;;;6364152;28;20454;-57
2024/02/17 17:45:15;;;;;;;1.00;1.00;;;;;;;;;;6386787;27;20310;-56
2024/02/17 17:48:19;;;;;;;2.03;1.30;;;;;;;;;;6387894;27;20534;-54
2024/02/17 17:51:25;;;;;;;1.90;1.13;;;;;;;;;;6388409;27;20303;-56
2024/02/17 17:54:28;;;;;;;3.23;1.20;;;;;;;;;;6388042;27;20298;-57
2024/02/17 17:57:33;;;;;;;1.10;1.00;;;;;;;;;;6388061;27;20298;-58
2024/02/17 18:00:37;;;;;;;1.10;1.10;;;;;;;;;;6387830;27;20469;-55
2024/02/17 18:03:40;;;;;;;1.30;1.20;;;;;;;;;;6387603;27;20292;-58
2024/02/17 18:06:46;;;;;;;2.53;1.20;;;;;;;;;;6387986;27;20296;-57
2024/02/17 18:09:50;;;;;;;1.37;1.37;;;;;;;;;;6379801;27;20470;-55
2024/02/17 18:12:54;;;;;;;1.23;0.90;;;;;;;;;;6386888;27;20287;-55
2024/02/17 18:15:58;;;;;;;1.60;1.50;;;;;;;;;;6387360;27;20288;-57
2024/02/17 18:19:02;;;;;;;1.10;1.10;;;;;;;;;;6386653;27;20280;-56
2024/02/17 18:22:08;;;;;;;1.53;1.33;;;;;;;;;;6387311;27;20288;-56
2024/02/17 18:25:13;;;;;;;1.27;1.20;;;;;;;;;;6385223;27;20473;-58
2024/02/17 18:28:17;;;;;;;1.40;1.23;;;;;;;;;;6387073;27;20434;-56
2024/02/17 18:31:21;;;;;;;1.40;1.40;;;;;;;;;;6387081;27;20286;-57